sensor_id;sensor_type;location;lat;lon;timestamp;temperature;humidity
64226;DHT22;50545;56.064;26.178;2023-04-25T00:00:19;13.00;55.40
64226;DHT22;50545;56.064;26.178;2023-04-25T00:02:46;13.00;57.30
64226;DHT22;50545;56.064;26.178;2023-04-25T00:05:14;13.00;57.20
64226;DHT22;50545;56.064;26.178;2023-04-25T00:07:43;13.00;57.10
64226;DHT22;50545;56.064;26.178;2023-04-25T00:10:10;13.00;56.60
64226;DHT22;50545;56.064;26.178;2023-04-25T00:12:40;12.90;57.60
64226;DHT22;50545;56.064;26.178;2023-04-25T00:15:08;12.90;58.30
64226;DHT22;50545;56.064;26.178;2023-04-25T00:17:36;12.90;57.80
64226;DHT22;50545;56.064;26.178;2023-04-25T00:20:06;12.90;57.20
64226;DHT22;50545;56.064;26.178;2023-04-25T00:22:36;12.90;57.80
64226;DHT22;50545;56.064;26.178;2023-04-25T00:25:07;12.80;57.70
64226;DHT22;50545;56.064;26.178;2023-04-25T00:27:34;12.80;58.50
64226;DHT22;50545;56.064;26.178;2023-04-25T00:30:01;12.80;58.90
64226;DHT22;50545;56.064;26.178;2023-04-25T00:32:29;12.80;57.20
64226;DHT22;50545;56.064;26.178;2023-04-25T00:34:56;12.80;57.30
64226;DHT22;50545;56.064;26.178;2023-04-25T00:37:25;12.80;58.00
64226;DHT22;50545;56.064;26.178;2023-04-25T00:39:52;12.80;58.50
64226;DHT22;50545;56.064;26.178;2023-04-25T00:42:21;12.70;58.80
64226;DHT22;50545;56.064;26.178;2023-04-25T00:44:49;12.70;58.50
64226;DHT22;50545;56.064;26.178;2023-04-25T00:47:17;12.70;58.60
64226;DHT22;50545;56.064;26.178;2023-04-25T00:49:44;12.70;59.60
64226;DHT22;50545;56.064;26.178;2023-04-25T00:52:11;12.70;58.00
64226;DHT22;50545;56.064;26.178;2023-04-25T00:54:39;12.70;58.80
64226;DHT22;50545;56.064;26.178;2023-04-25T00:57:07;12.60;59.20
64226;DHT22;50545;56.064;26.178;2023-04-25T00:59:34;12.60;60.00
64226;DHT22;50545;56.064;26.178;2023-04-25T01:02:03;12.60;59.70
64226;DHT22;50545;56.064;26.178;2023-04-25T01:04:30;12.60;60.20
64226;DHT22;50545;56.064;26.178;2023-04-25T01:06:58;12.50;59.80
64226;DHT22;50545;56.064;26.178;2023-04-25T01:09:25;12.50;59.70
64226;DHT22;50545;56.064;26.178;2023-04-25T01:11:53;12.50;59.60
64226;DHT22;50545;56.064;26.178;2023-04-25T01:14:20;12.40;59.80
64226;DHT22;50545;56.064;26.178;2023-04-25T01:16:47;12.50;59.80
64226;DHT22;50545;56.064;26.178;2023-04-25T01:19:17;12.40;60.80
64226;DHT22;50545;56.064;26.178;2023-04-25T01:21:45;12.40;61.50
64226;DHT22;50545;56.064;26.178;2023-04-25T01:24:13;12.30;61.70
64226;DHT22;50545;56.064;26.178;2023-04-25T01:26:41;12.30;61.70
64226;DHT22;50545;56.064;26.178;2023-04-25T01:29:11;12.20;61.00
64226;DHT22;50545;56.064;26.178;2023-04-25T01:31:38;12.20;61.40
64226;DHT22;50545;56.064;26.178;2023-04-25T01:34:06;12.20;61.90
64226;DHT22;50545;56.064;26.178;2023-04-25T01:36:34;12.20;61.50
64226;DHT22;50545;56.064;26.178;2023-04-25T01:39:02;12.20;62.60
64226;DHT22;50545;56.064;26.178;2023-04-25T01:41:30;12.10;62.70
64226;DHT22;50545;56.064;26.178;2023-04-25T01:43:58;12.10;64.00
64226;DHT22;50545;56.064;26.178;2023-04-25T01:46:26;12.00;63.20
64226;DHT22;50545;56.064;26.178;2023-04-25T01:48:53;12.10;63.80
64226;DHT22;50545;56.064;26.178;2023-04-25T01:51:21;12.00;64.60
64226;DHT22;50545;56.064;26.178;2023-04-25T01:53:48;12.00;63.50
64226;DHT22;50545;56.064;26.178;2023-04-25T01:56:18;11.90;63.40
64226;DHT22;50545;56.064;26.178;2023-04-25T01:58:45;11.90;63.80
64226;DHT22;50545;56.064;26.178;2023-04-25T02:01:13;11.90;64.20
64226;DHT22;50545;56.064;26.178;2023-04-25T02:03:40;11.90;64.00
64226;DHT22;50545;56.064;26.178;2023-04-25T02:06:08;11.90;64.60
64226;DHT22;50545;56.064;26.178;2023-04-25T02:08:35;11.90;63.90
64226;DHT22;50545;56.064;26.178;2023-04-25T02:11:04;11.90;64.00
64226;DHT22;50545;56.064;26.178;2023-04-25T02:13:31;11.90;65.60
64226;DHT22;50545;56.064;26.178;2023-04-25T02:15:58;11.80;65.00
64226;DHT22;50545;56.064;26.178;2023-04-25T02:18:26;11.80;64.30
64226;DHT22;50545;56.064;26.178;2023-04-25T02:20:53;11.80;64.80
64226;DHT22;50545;56.064;26.178;2023-04-25T02:23:20;11.80;64.80
64226;DHT22;50545;56.064;26.178;2023-04-25T02:25:48;11.80;65.20
64226;DHT22;50545;56.064;26.178;2023-04-25T02:28:15;11.70;64.60
64226;DHT22;50545;56.064;26.178;2023-04-25T02:30:42;11.70;65.10
64226;DHT22;50545;56.064;26.178;2023-04-25T02:33:10;11.70;64.10
64226;DHT22;50545;56.064;26.178;2023-04-25T02:35:37;11.70;65.90
64226;DHT22;50545;56.064;26.178;2023-04-25T02:38:04;11.60;65.40
64226;DHT22;50545;56.064;26.178;2023-04-25T02:40:31;11.60;65.40
64226;DHT22;50545;56.064;26.178;2023-04-25T02:42:59;11.60;65.90
64226;DHT22;50545;56.064;26.178;2023-04-25T02:45:26;11.60;65.80
64226;DHT22;50545;56.064;26.178;2023-04-25T02:47:53;11.60;66.50
64226;DHT22;50545;56.064;26.178;2023-04-25T02:50:20;11.50;67.40
64226;DHT22;50545;56.064;26.178;2023-04-25T02:52:48;11.50;67.10
64226;DHT22;50545;56.064;26.178;2023-04-25T02:55:15;11.50;67.50
64226;DHT22;50545;56.064;26.178;2023-04-25T02:57:42;11.50;68.30
64226;DHT22;50545;56.064;26.178;2023-04-25T03:00:10;11.50;68.90
64226;DHT22;50545;56.064;26.178;2023-04-25T03:02:38;11.50;68.60
64226;DHT22;50545;56.064;26.178;2023-04-25T03:05:06;11.40;68.30
64226;DHT22;50545;56.064;26.178;2023-04-25T03:07:34;11.40;68.10
64226;DHT22;50545;56.064;26.178;2023-04-25T03:10:01;11.40;68.20
64226;DHT22;50545;56.064;26.178;2023-04-25T03:12:29;11.40;68.60
64226;DHT22;50545;56.064;26.178;2023-04-25T03:14:56;11.40;68.90
64226;DHT22;50545;56.064;26.178;2023-04-25T03:17:23;11.40;69.40
64226;DHT22;50545;56.064;26.178;2023-04-25T03:19:50;11.30;69.20
64226;DHT22;50545;56.064;26.178;2023-04-25T03:22:18;11.40;71.00
64226;DHT22;50545;56.064;26.178;2023-04-25T03:24:45;11.30;71.80
64226;DHT22;50545;56.064;26.178;2023-04-25T03:27:12;11.30;72.20
64226;DHT22;50545;56.064;26.178;2023-04-25T03:29:40;11.30;73.80
64226;DHT22;50545;56.064;26.178;2023-04-25T03:32:07;11.20;75.00
64226;DHT22;50545;56.064;26.178;2023-04-25T03:34:34;11.20;75.00
64226;DHT22;50545;56.064;26.178;2023-04-25T03:37:02;11.10;75.40
64226;DHT22;50545;56.064;26.178;2023-04-25T03:39:29;11.10;75.20
64226;DHT22;50545;56.064;26.178;2023-04-25T03:41:56;11.10;75.50
64226;DHT22;50545;56.064;26.178;2023-04-25T03:44:23;11.00;75.80
64226;DHT22;50545;56.064;26.178;2023-04-25T03:46:51;11.00;74.90
64226;DHT22;50545;56.064;26.178;2023-04-25T03:49:18;10.90;75.50
64226;DHT22;50545;56.064;26.178;2023-04-25T03:51:45;10.90;76.10
64226;DHT22;50545;56.064;26.178;2023-04-25T03:54:12;10.90;76.70
64226;DHT22;50545;56.064;26.178;2023-04-25T03:56:40;10.80;77.40
64226;DHT22;50545;56.064;26.178;2023-04-25T03:59:07;10.70;77.50
64226;DHT22;50545;56.064;26.178;2023-04-25T04:01:34;10.70;78.60
64226;DHT22;50545;56.064;26.178;2023-04-25T04:04:02;10.60;80.20
64226;DHT22;50545;56.064;26.178;2023-04-25T04:06:30;10.60;83.20
64226;DHT22;50545;56.064;26.178;2023-04-25T04:08:57;10.50;85.30
64226;DHT22;50545;56.064;26.178;2023-04-25T04:11:24;10.60;84.10
64226;DHT22;50545;56.064;26.178;2023-04-25T04:13:51;10.60;83.80
64226;DHT22;50545;56.064;26.178;2023-04-25T04:16:19;10.60;83.00
64226;DHT22;50545;56.064;26.178;2023-04-25T04:18:46;10.70;82.50
64226;DHT22;50545;56.064;26.178;2023-04-25T04:21:13;10.80;82.00
64226;DHT22;50545;56.064;26.178;2023-04-25T04:23:41;10.90;80.40
64226;DHT22;50545;56.064;26.178;2023-04-25T04:26:09;11.00;79.90
64226;DHT22;50545;56.064;26.178;2023-04-25T04:28:36;11.00;80.70
64226;DHT22;50545;56.064;26.178;2023-04-25T04:31:04;11.20;80.80
64226;DHT22;50545;56.064;26.178;2023-04-25T04:33:31;11.20;81.00
64226;DHT22;50545;56.064;26.178;2023-04-25T04:35:59;11.30;79.30
64226;DHT22;50545;56.064;26.178;2023-04-25T04:38:26;11.40;79.00
64226;DHT22;50545;56.064;26.178;2023-04-25T04:40:53;11.50;78.10
64226;DHT22;50545;56.064;26.178;2023-04-25T04:43:20;11.50;77.70
64226;DHT22;50545;56.064;26.178;2023-04-25T04:45:49;11.50;78.80
64226;DHT22;50545;56.064;26.178;2023-04-25T04:48:17;11.50;77.80
64226;DHT22;50545;56.064;26.178;2023-04-25T04:50:44;11.60;77.10
64226;DHT22;50545;56.064;26.178;2023-04-25T04:53:14;11.70;76.90
64226;DHT22;50545;56.064;26.178;2023-04-25T04:55:42;11.70;75.40
64226;DHT22;50545;56.064;26.178;2023-04-25T04:58:09;11.70;76.60
64226;DHT22;50545;56.064;26.178;2023-04-25T05:00:37;11.70;76.40
64226;DHT22;50545;56.064;26.178;2023-04-25T05:03:05;11.70;76.70
64226;DHT22;50545;56.064;26.178;2023-04-25T05:05:32;11.70;75.70
64226;DHT22;50545;56.064;26.178;2023-04-25T05:08:00;11.70;75.40
64226;DHT22;50545;56.064;26.178;2023-04-25T05:10:27;11.70;74.90
64226;DHT22;50545;56.064;26.178;2023-04-25T05:12:54;11.70;76.20
64226;DHT22;50545;56.064;26.178;2023-04-25T05:15:21;11.80;76.30
64226;DHT22;50545;56.064;26.178;2023-04-25T05:17:48;11.80;76.40
64226;DHT22;50545;56.064;26.178;2023-04-25T05:20:15;11.90;77.50
64226;DHT22;50545;56.064;26.178;2023-04-25T05:22:43;11.90;75.60
64226;DHT22;50545;56.064;26.178;2023-04-25T05:25:10;12.00;76.40
64226;DHT22;50545;56.064;26.178;2023-04-25T05:27:37;12.10;77.30
64226;DHT22;50545;56.064;26.178;2023-04-25T05:30:05;12.20;74.90
64226;DHT22;50545;56.064;26.178;2023-04-25T05:32:32;12.40;76.10
64226;DHT22;50545;56.064;26.178;2023-04-25T05:34:59;12.40;74.00
64226;DHT22;50545;56.064;26.178;2023-04-25T05:37:27;12.50;71.60
64226;DHT22;50545;56.064;26.178;2023-04-25T05:39:54;12.60;73.80
64226;DHT22;50545;56.064;26.178;2023-04-25T05:42:21;12.80;73.20
64226;DHT22;50545;56.064;26.178;2023-04-25T05:44:48;12.80;75.20
64226;DHT22;50545;56.064;26.178;2023-04-25T05:47:15;13.00;72.60
64226;DHT22;50545;56.064;26.178;2023-04-25T05:49:42;13.10;72.00
64226;DHT22;50545;56.064;26.178;2023-04-25T05:52:09;13.20;72.50
64226;DHT22;50545;56.064;26.178;2023-04-25T05:54:36;13.30;70.90
64226;DHT22;50545;56.064;26.178;2023-04-25T05:57:03;13.40;69.90
64226;DHT22;50545;56.064;26.178;2023-04-25T05:59:31;13.50;70.60
64226;DHT22;50545;56.064;26.178;2023-04-25T06:01:58;13.60;69.70
64226;DHT22;50545;56.064;26.178;2023-04-25T06:04:25;13.70;68.50
64226;DHT22;50545;56.064;26.178;2023-04-25T06:06:53;13.80;68.50
64226;DHT22;50545;56.064;26.178;2023-04-25T06:09:20;13.90;68.60
64226;DHT22;50545;56.064;26.178;2023-04-25T06:11:48;14.00;71.60
64226;DHT22;50545;56.064;26.178;2023-04-25T06:14:15;14.00;72.90
64226;DHT22;50545;56.064;26.178;2023-04-25T06:16:42;14.20;72.90
64226;DHT22;50545;56.064;26.178;2023-04-25T06:19:09;14.20;74.10
64226;DHT22;50545;56.064;26.178;2023-04-25T06:21:36;14.30;73.40
64226;DHT22;50545;56.064;26.178;2023-04-25T06:24:04;14.40;73.30
64226;DHT22;50545;56.064;26.178;2023-04-25T06:26:31;14.50;72.20
64226;DHT22;50545;56.064;26.178;2023-04-25T06:28:58;14.60;71.80
64226;DHT22;50545;56.064;26.178;2023-04-25T06:31:25;14.70;71.20
64226;DHT22;50545;56.064;26.178;2023-04-25T06:33:52;14.80;68.80
64226;DHT22;50545;56.064;26.178;2023-04-25T06:36:21;15.00;72.00
64226;DHT22;50545;56.064;26.178;2023-04-25T06:38:54;15.20;69.20
64226;DHT22;50545;56.064;26.178;2023-04-25T06:41:21;15.30;67.00
64226;DHT22;50545;56.064;26.178;2023-04-25T06:43:49;15.40;65.90
64226;DHT22;50545;56.064;26.178;2023-04-25T06:46:16;15.50;66.20
64226;DHT22;50545;56.064;26.178;2023-04-25T06:48:43;15.60;62.90
64226;DHT22;50545;56.064;26.178;2023-04-25T06:51:10;15.60;63.20
64226;DHT22;50545;56.064;26.178;2023-04-25T06:53:37;15.70;65.40
64226;DHT22;50545;56.064;26.178;2023-04-25T06:56:05;15.70;63.10
64226;DHT22;50545;56.064;26.178;2023-04-25T06:58:32;15.80;63.70
64226;DHT22;50545;56.064;26.178;2023-04-25T07:00:59;15.90;64.90
64226;DHT22;50545;56.064;26.178;2023-04-25T07:03:26;16.00;65.70
64226;DHT22;50545;56.064;26.178;2023-04-25T07:05:54;16.10;62.60
64226;DHT22;50545;56.064;26.178;2023-04-25T07:08:21;16.30;61.00
64226;DHT22;50545;56.064;26.178;2023-04-25T07:10:48;16.40;60.10
64226;DHT22;50545;56.064;26.178;2023-04-25T07:13:16;16.50;59.10
64226;DHT22;50545;56.064;26.178;2023-04-25T07:15:43;16.50;57.90
64226;DHT22;50545;56.064;26.178;2023-04-25T07:18:11;16.60;55.50
64226;DHT22;50545;56.064;26.178;2023-04-25T07:20:38;16.70;60.30
64226;DHT22;50545;56.064;26.178;2023-04-25T07:23:05;16.80;59.70
64226;DHT22;50545;56.064;26.178;2023-04-25T07:25:32;16.90;61.30
64226;DHT22;50545;56.064;26.178;2023-04-25T07:28:00;17.00;61.10
64226;DHT22;50545;56.064;26.178;2023-04-25T07:30:27;17.20;57.80
64226;DHT22;50545;56.064;26.178;2023-04-25T07:32:54;17.20;54.60
64226;DHT22;50545;56.064;26.178;2023-04-25T07:35:22;17.30;54.00
64226;DHT22;50545;56.064;26.178;2023-04-25T07:37:49;17.30;56.50
64226;DHT22;50545;56.064;26.178;2023-04-25T07:40:17;17.40;55.40
64226;DHT22;50545;56.064;26.178;2023-04-25T07:42:44;17.50;53.90
64226;DHT22;50545;56.064;26.178;2023-04-25T07:45:11;17.60;54.20
64226;DHT22;50545;56.064;26.178;2023-04-25T07:47:39;17.60;52.20
64226;DHT22;50545;56.064;26.178;2023-04-25T07:50:06;17.70;53.30
64226;DHT22;50545;56.064;26.178;2023-04-25T07:52:34;17.80;54.60
64226;DHT22;50545;56.064;26.178;2023-04-25T07:55:01;17.80;54.80
64226;DHT22;50545;56.064;26.178;2023-04-25T07:57:29;17.90;53.50
64226;DHT22;50545;56.064;26.178;2023-04-25T07:59:56;18.00;53.00
64226;DHT22;50545;56.064;26.178;2023-04-25T08:02:24;18.10;51.20
64226;DHT22;50545;56.064;26.178;2023-04-25T08:04:55;18.20;49.20
64226;DHT22;50545;56.064;26.178;2023-04-25T08:07:22;18.20;50.10
64226;DHT22;50545;56.064;26.178;2023-04-25T08:09:49;18.20;49.10
64226;DHT22;50545;56.064;26.178;2023-04-25T08:12:17;18.20;50.30
64226;DHT22;50545;56.064;26.178;2023-04-25T08:14:44;18.30;52.00
64226;DHT22;50545;56.064;26.178;2023-04-25T08:17:11;18.40;52.80
64226;DHT22;50545;56.064;26.178;2023-04-25T08:19:38;18.50;48.40
64226;DHT22;50545;56.064;26.178;2023-04-25T08:22:06;18.60;50.40
64226;DHT22;50545;56.064;26.178;2023-04-25T08:24:33;18.70;51.50
64226;DHT22;50545;56.064;26.178;2023-04-25T08:27:03;18.80;49.00
64226;DHT22;50545;56.064;26.178;2023-04-25T08:29:30;18.80;48.20
64226;DHT22;50545;56.064;26.178;2023-04-25T08:31:57;18.80;47.40
64226;DHT22;50545;56.064;26.178;2023-04-25T08:34:25;18.90;48.50
64226;DHT22;50545;56.064;26.178;2023-04-25T08:36:52;18.80;47.30
64226;DHT22;50545;56.064;26.178;2023-04-25T08:39:20;18.80;48.80
64226;DHT22;50545;56.064;26.178;2023-04-25T08:41:47;18.90;47.50
64226;DHT22;50545;56.064;26.178;2023-04-25T08:44:15;18.90;46.40
64226;DHT22;50545;56.064;26.178;2023-04-25T08:46:46;19.00;48.50
64226;DHT22;50545;56.064;26.178;2023-04-25T08:49:17;19.20;45.80
64226;DHT22;50545;56.064;26.178;2023-04-25T08:51:46;19.30;48.60
64226;DHT22;50545;56.064;26.178;2023-04-25T08:54:20;19.40;49.00
64226;DHT22;50545;56.064;26.178;2023-04-25T08:57:02;19.50;47.10
64226;DHT22;50545;56.064;26.178;2023-04-25T08:59:32;19.50;44.60
64226;DHT22;50545;56.064;26.178;2023-04-25T09:02:00;19.60;48.10
64226;DHT22;50545;56.064;26.178;2023-04-25T09:04:32;19.50;45.80
64226;DHT22;50545;56.064;26.178;2023-04-25T09:06:59;19.40;49.20
64226;DHT22;50545;56.064;26.178;2023-04-25T09:09:27;19.50;49.50
64226;DHT22;50545;56.064;26.178;2023-04-25T09:11:54;19.70;48.50
64226;DHT22;50545;56.064;26.178;2023-04-25T09:14:23;19.50;46.10
64226;DHT22;50545;56.064;26.178;2023-04-25T09:19:30;18.70;45.00
64226;DHT22;50545;56.064;26.178;2023-04-25T09:22:07;18.40;44.50
64226;DHT22;50545;56.064;26.178;2023-04-25T09:24:46;18.30;46.90
64226;DHT22;50545;56.064;26.178;2023-04-25T09:27:20;18.40;52.30
64226;DHT22;50545;56.064;26.178;2023-04-25T09:29:57;18.50;46.90
64226;DHT22;50545;56.064;26.178;2023-04-25T09:32:25;18.50;45.40
64226;DHT22;50545;56.064;26.178;2023-04-25T09:34:54;18.70;48.30
64226;DHT22;50545;56.064;26.178;2023-04-25T09:37:24;19.10;47.20
64226;DHT22;50545;56.064;26.178;2023-04-25T09:39:55;19.50;49.70
64226;DHT22;50545;56.064;26.178;2023-04-25T09:42:26;19.80;48.50
64226;DHT22;50545;56.064;26.178;2023-04-25T09:44:55;20.00;47.20
64226;DHT22;50545;56.064;26.178;2023-04-25T09:47:24;20.30;48.80
64226;DHT22;50545;56.064;26.178;2023-04-25T09:49:53;20.70;49.40
64226;DHT22;50545;56.064;26.178;2023-04-25T09:52:24;20.90;44.30
64226;DHT22;50545;56.064;26.178;2023-04-25T09:54:52;21.00;43.80
64226;DHT22;50545;56.064;26.178;2023-04-25T09:57:24;21.10;47.00
64226;DHT22;50545;56.064;26.178;2023-04-25T09:59:55;21.20;41.90
64226;DHT22;50545;56.064;26.178;2023-04-25T10:02:25;20.80;42.40
64226;DHT22;50545;56.064;26.178;2023-04-25T10:04:56;20.60;46.50
64226;DHT22;50545;56.064;26.178;2023-04-25T10:07:24;20.30;45.10
64226;DHT22;50545;56.064;26.178;2023-04-25T10:09:59;19.90;46.00
64226;DHT22;50545;56.064;26.178;2023-04-25T10:12:29;19.60;45.20
64226;DHT22;50545;56.064;26.178;2023-04-25T10:14:58;19.50;49.10
64226;DHT22;50545;56.064;26.178;2023-04-25T10:17:28;19.70;50.40
64226;DHT22;50545;56.064;26.178;2023-04-25T10:19:56;20.00;47.40
64226;DHT22;50545;56.064;26.178;2023-04-25T10:22:36;19.80;47.40
64226;DHT22;50545;56.064;26.178;2023-04-25T10:25:04;19.40;46.40
64226;DHT22;50545;56.064;26.178;2023-04-25T10:27:34;19.00;45.90
64226;DHT22;50545;56.064;26.178;2023-04-25T10:30:07;18.60;47.50
64226;DHT22;50545;56.064;26.178;2023-04-25T10:32:38;18.40;49.40
64226;DHT22;50545;56.064;26.178;2023-04-25T10:35:16;18.30;48.40
64226;DHT22;50545;56.064;26.178;2023-04-25T10:38:03;18.20;45.10
64226;DHT22;50545;56.064;26.178;2023-04-25T10:40:32;18.00;45.30
64226;DHT22;50545;56.064;26.178;2023-04-25T10:45:59;17.80;49.30
64226;DHT22;50545;56.064;26.178;2023-04-25T10:48:31;17.70;51.10
64226;DHT22;50545;56.064;26.178;2023-04-25T10:51:11;17.60;51.80
64226;DHT22;50545;56.064;26.178;2023-04-25T10:53:38;17.50;55.10
64226;DHT22;50545;56.064;26.178;2023-04-25T10:56:19;17.40;55.40
64226;DHT22;50545;56.064;26.178;2023-04-25T10:58:48;17.10;56.10
64226;DHT22;50545;56.064;26.178;2023-04-25T11:01:24;16.80;58.10
64226;DHT22;50545;56.064;26.178;2023-04-25T11:03:57;16.30;57.90
64226;DHT22;50545;56.064;26.178;2023-04-25T11:06:46;16.10;59.90
64226;DHT22;50545;56.064;26.178;2023-04-25T11:09:27;16.20;61.50
64226;DHT22;50545;56.064;26.178;2023-04-25T11:11:56;16.40;63.60
64226;DHT22;50545;56.064;26.178;2023-04-25T11:14:23;16.50;64.00
64226;DHT22;50545;56.064;26.178;2023-04-25T11:16:57;16.60;63.90
64226;DHT22;50545;56.064;26.178;2023-04-25T11:19:48;16.80;67.50
64226;DHT22;50545;56.064;26.178;2023-04-25T11:22:16;17.50;59.60
64226;DHT22;50545;56.064;26.178;2023-04-25T11:24:43;18.00;58.30
64226;DHT22;50545;56.064;26.178;2023-04-25T11:27:10;18.40;53.30
64226;DHT22;50545;56.064;26.178;2023-04-25T11:29:37;18.60;55.60
64226;DHT22;50545;56.064;26.178;2023-04-25T11:32:04;18.60;52.40
64226;DHT22;50545;56.064;26.178;2023-04-25T11:34:33;18.60;53.00
64226;DHT22;50545;56.064;26.178;2023-04-25T11:37:02;18.60;52.00
64226;DHT22;50545;56.064;26.178;2023-04-25T11:39:29;18.60;53.60
64226;DHT22;50545;56.064;26.178;2023-04-25T11:41:57;18.50;53.80
64226;DHT22;50545;56.064;26.178;2023-04-25T11:44:26;18.60;55.00
64226;DHT22;50545;56.064;26.178;2023-04-25T11:46:54;19.00;55.90
64226;DHT22;50545;56.064;26.178;2023-04-25T11:49:22;19.30;52.30
64226;DHT22;50545;56.064;26.178;2023-04-25T11:51:49;19.40;53.20
64226;DHT22;50545;56.064;26.178;2023-04-25T11:54:16;19.20;52.10
64226;DHT22;50545;56.064;26.178;2023-04-25T11:56:46;19.20;53.20
64226;DHT22;50545;56.064;26.178;2023-04-25T11:59:14;19.40;53.90
64226;DHT22;50545;56.064;26.178;2023-04-25T12:01:48;19.60;55.60
64226;DHT22;50545;56.064;26.178;2023-04-25T12:04:19;19.70;53.40
64226;DHT22;50545;56.064;26.178;2023-04-25T12:06:50;19.60;53.30
64226;DHT22;50545;56.064;26.178;2023-04-25T12:09:20;19.50;53.80
64226;DHT22;50545;56.064;26.178;2023-04-25T12:11:52;19.50;53.40
64226;DHT22;50545;56.064;26.178;2023-04-25T12:14:27;19.50;50.40
64226;DHT22;50545;56.064;26.178;2023-04-25T12:16:59;19.70;55.00
64226;DHT22;50545;56.064;26.178;2023-04-25T12:19:33;20.10;53.40
64226;DHT22;50545;56.064;26.178;2023-04-25T12:22:02;20.60;52.30
64226;DHT22;50545;56.064;26.178;2023-04-25T12:24:33;20.70;51.90
64226;DHT22;50545;56.064;26.178;2023-04-25T12:27:07;20.70;49.40
64226;DHT22;50545;56.064;26.178;2023-04-25T12:29:37;20.60;49.80
64226;DHT22;50545;56.064;26.178;2023-04-25T12:32:16;20.30;53.80
64226;DHT22;50545;56.064;26.178;2023-04-25T12:34:43;20.00;49.50
64226;DHT22;50545;56.064;26.178;2023-04-25T12:37:12;19.70;50.60
64226;DHT22;50545;56.064;26.178;2023-04-25T12:39:39;19.50;51.00
64226;DHT22;50545;56.064;26.178;2023-04-25T12:42:07;19.00;52.70
64226;DHT22;50545;56.064;26.178;2023-04-25T12:44:39;18.60;54.90
64226;DHT22;50545;56.064;26.178;2023-04-25T12:47:07;18.20;54.70
64226;DHT22;50545;56.064;26.178;2023-04-25T12:49:34;18.00;54.60
64226;DHT22;50545;56.064;26.178;2023-04-25T12:52:02;17.80;56.30
64226;DHT22;50545;56.064;26.178;2023-04-25T12:54:29;17.60;57.50
64226;DHT22;50545;56.064;26.178;2023-04-25T12:56:57;17.50;56.50
64226;DHT22;50545;56.064;26.178;2023-04-25T12:59:24;17.50;58.10
64226;DHT22;50545;56.064;26.178;2023-04-25T13:01:51;17.40;56.70
64226;DHT22;50545;56.064;26.178;2023-04-25T13:04:18;17.50;60.50
64226;DHT22;50545;56.064;26.178;2023-04-25T13:06:48;17.80;56.90
64226;DHT22;50545;56.064;26.178;2023-04-25T13:09:15;18.20;57.50
64226;DHT22;50545;56.064;26.178;2023-04-25T13:11:42;18.70;61.80
64226;DHT22;50545;56.064;26.178;2023-04-25T13:14:10;19.40;56.10
64226;DHT22;50545;56.064;26.178;2023-04-25T13:16:37;19.90;53.50
64226;DHT22;50545;56.064;26.178;2023-04-25T13:19:04;20.00;53.30
64226;DHT22;50545;56.064;26.178;2023-04-25T13:21:34;19.90;52.40
64226;DHT22;50545;56.064;26.178;2023-04-25T13:24:02;19.70;52.40
64226;DHT22;50545;56.064;26.178;2023-04-25T13:26:29;19.80;52.60
64226;DHT22;50545;56.064;26.178;2023-04-25T13:28:56;20.10;51.70
64226;DHT22;50545;56.064;26.178;2023-04-25T13:31:24;20.10;53.30
64226;DHT22;50545;56.064;26.178;2023-04-25T13:33:51;20.20;52.80
64226;DHT22;50545;56.064;26.178;2023-04-25T13:36:19;20.10;49.60
64226;DHT22;50545;56.064;26.178;2023-04-25T13:38:48;20.10;51.60
64226;DHT22;50545;56.064;26.178;2023-04-25T13:41:16;20.00;52.80
64226;DHT22;50545;56.064;26.178;2023-04-25T13:43:46;19.90;50.80
64226;DHT22;50545;56.064;26.178;2023-04-25T13:46:15;19.90;54.90
64226;DHT22;50545;56.064;26.178;2023-04-25T13:49:03;20.30;53.00
64226;DHT22;50545;56.064;26.178;2023-04-25T13:51:39;20.90;50.50
64226;DHT22;50545;56.064;26.178;2023-04-25T13:54:06;21.40;53.30
64226;DHT22;50545;56.064;26.178;2023-04-25T13:56:34;21.80;52.00
64226;DHT22;50545;56.064;26.178;2023-04-25T13:59:02;22.40;49.50
64226;DHT22;50545;56.064;26.178;2023-04-25T14:01:29;22.60;49.20
64226;DHT22;50545;56.064;26.178;2023-04-25T14:04:01;22.40;48.20
64226;DHT22;50545;56.064;26.178;2023-04-25T14:06:31;22.00;46.20
64226;DHT22;50545;56.064;26.178;2023-04-25T14:08:58;21.80;47.20
64226;DHT22;50545;56.064;26.178;2023-04-25T14:11:28;21.70;50.50
64226;DHT22;50545;56.064;26.178;2023-04-25T14:13:55;21.60;48.20
64226;DHT22;50545;56.064;26.178;2023-04-25T14:16:22;21.60;46.80
64226;DHT22;50545;56.064;26.178;2023-04-25T14:18:50;21.90;46.30
64226;DHT22;50545;56.064;26.178;2023-04-25T14:21:17;22.20;47.40
64226;DHT22;50545;56.064;26.178;2023-04-25T14:23:44;22.30;45.90
64226;DHT22;50545;56.064;26.178;2023-04-25T14:26:12;22.30;43.90
64226;DHT22;50545;56.064;26.178;2023-04-25T14:28:39;22.60;44.80
64226;DHT22;50545;56.064;26.178;2023-04-25T14:31:06;22.50;44.00
64226;DHT22;50545;56.064;26.178;2023-04-25T14:33:34;22.80;45.30
64226;DHT22;50545;56.064;26.178;2023-04-25T14:36:02;22.70;43.70
64226;DHT22;50545;56.064;26.178;2023-04-25T14:38:29;22.80;43.60
64226;DHT22;50545;56.064;26.178;2023-04-25T14:40:57;22.70;41.80
64226;DHT22;50545;56.064;26.178;2023-04-25T14:43:24;22.90;42.40
64226;DHT22;50545;56.064;26.178;2023-04-25T14:45:51;23.00;41.80
64226;DHT22;50545;56.064;26.178;2023-04-25T14:48:18;23.20;44.10
64226;DHT22;50545;56.064;26.178;2023-04-25T14:50:46;23.50;45.40
64226;DHT22;50545;56.064;26.178;2023-04-25T14:53:13;23.60;42.30
64226;DHT22;50545;56.064;26.178;2023-04-25T14:55:41;23.60;44.50
64226;DHT22;50545;56.064;26.178;2023-04-25T14:58:08;23.30;44.70
64226;DHT22;50545;56.064;26.178;2023-04-25T15:00:36;23.00;44.80
64226;DHT22;50545;56.064;26.178;2023-04-25T15:03:04;22.60;45.30
64226;DHT22;50545;56.064;26.178;2023-04-25T15:05:31;22.40;46.80
64226;DHT22;50545;56.064;26.178;2023-04-25T15:07:58;22.20;46.20
64226;DHT22;50545;56.064;26.178;2023-04-25T15:10:26;22.00;44.10
64226;DHT22;50545;56.064;26.178;2023-04-25T15:12:53;21.70;45.60
64226;DHT22;50545;56.064;26.178;2023-04-25T15:15:20;21.70;49.60
64226;DHT22;50545;56.064;26.178;2023-04-25T15:17:53;21.70;47.00
64226;DHT22;50545;56.064;26.178;2023-04-25T15:20:25;21.60;46.60
64226;DHT22;50545;56.064;26.178;2023-04-25T15:22:52;21.40;45.70
64226;DHT22;50545;56.064;26.178;2023-04-25T15:25:19;21.30;47.50
64226;DHT22;50545;56.064;26.178;2023-04-25T15:27:46;21.10;47.10